Time;durP1;ratioP1;P1;durP2;ratioP2;P2;SDS_P1;SDS_P2;PMS_P1;PMS_P2;Temp;Humidity;BMP_temperature;BMP_pressure;BME280_temperature;BME280_humidity;BME280_pressure;Samples;Min_cycle;Max_cycle;Signal;HPM_P1;HPM_P2
2021/06/23 00:01:14;;;;;;;3.72;2.35;;;27.80;54.30;;;;;;5077719;28;20050;-62
2021/06/23 00:03:42;;;;;;;3.17;2.10;;;27.80;54.20;;;;;;5077901;28;20040;-62
2021/06/23 00:06:09;;;;;;;3.95;2.47;;;27.80;54.20;;;;;;5078747;28;20378;-62
2021/06/23 00:08:37;;;;;;;3.15;2.65;;;27.80;54.20;;;;;;5076129;28;20083;-62
2021/06/23 00:11:04;;;;;;;2.28;2.00;;;27.80;54.30;;;;;;5077621;28;20094;-62
2021/06/23 00:13:34;;;;;;;4.05;2.42;;;27.80;54.30;;;;;;5067769;28;20073;-61
2021/06/23 00:16:05;;;;;;;2.85;2.47;;;27.80;54.30;;;;;;5067805;28;20080;-62
2021/06/23 00:18:33;;;;;;;2.55;1.65;;;27.80;54.30;;;;;;5073675;28;20516;-62
2021/06/23 00:21:00;;;;;;;3.97;2.30;;;27.80;54.30;;;;;;5078123;28;20127;-62
2021/06/23 00:23:27;;;;;;;1.90;1.70;;;27.80;54.30;;;;;;5078585;28;20052;-62
2021/06/23 00:25:56;;;;;;;3.97;2.35;;;27.80;54.30;;;;;;5076379;28;20054;-62
2021/06/23 00:28:23;;;;;;;1.98;1.70;;;27.80;54.30;;;;;;5078068;28;20102;-62
2021/06/23 00:30:51;;;;;;;3.42;2.20;;;27.70;54.30;;;;;;5075879;28;20142;-62
2021/06/23 00:33:21;;;;;;;4.07;2.13;;;27.70;54.30;;;;;;5077356;28;20589;-61
2021/06/23 00:35:48;;;;;;;3.30;2.38;;;27.70;54.30;;;;;;5078095;28;20475;-61
2021/06/23 00:38:16;;;;;;;3.30;2.63;;;27.70;54.30;;;;;;5074446;28;20093;-62
2021/06/23 00:40:44;;;;;;;4.07;2.53;;;27.70;54.30;;;;;;5076397;28;20113;-61
2021/06/23 00:43:13;;;;;;;3.25;2.50;;;27.70;54.30;;;;;;5078388;28;20443;-61
2021/06/23 00:45:41;;;;;;;2.15;1.80;;;27.70;54.30;;;;;;5077017;28;20497;-62
2021/06/23 00:48:10;;;;;;;2.33;1.70;;;27.70;54.30;;;;;;5075925;28;20106;-62
2021/06/23 00:50:40;;;;;;;3.95;2.30;;;27.70;54.30;;;;;;5076012;28;20044;-62
2021/06/23 00:53:09;;;;;;;2.97;2.10;;;27.70;54.30;;;;;;5077910;28;20134;-62
2021/06/23 00:55:36;;;;;;;2.50;1.95;;;27.70;54.30;;;;;;5075464;28;20044;-62
2021/06/23 00:58:05;;;;;;;3.05;2.38;;;27.70;54.30;;;;;;5076120;28;20561;-62
2021/06/23 01:00:35;;;;;;;2.60;1.95;;;27.70;54.30;;;;;;5077259;28;20044;-62
2021/06/23 01:03:03;;;;;;;;;;;27.70;54.30;;;;;;5077770;28;20041;-62
2021/06/23 01:05:30;;;;;;;2.60;2.22;;;27.70;54.30;;;;;;5075585;28;19930;-62
2021/06/23 01:07:58;;;;;;;3.40;2.38;;;27.60;54.30;;;;;;5075708;28;20054;-62
2021/06/23 01:10:30;;;;;;;3.88;2.15;;;27.70;54.40;;;;;;5077033;28;20066;-62
2021/06/23 01:13:19;;;;;;;4.20;2.05;;;27.70;54.40;;;;;;5076263;28;20135;-62
2021/06/23 01:15:49;;;;;;;2.88;2.30;;;27.70;54.40;;;;;;5078048;28;20456;-62
2021/06/23 01:18:16;;;;;;;;;;;27.70;54.40;;;;;;5076570;28;20098;-62
2021/06/23 01:20:45;;;;;;;2.97;2.10;;;27.70;54.40;;;;;;5075069;28;19967;-62
2021/06/23 01:23:13;;;;;;;2.95;2.20;;;27.70;54.40;;;;;;5078190;28;20075;-62
2021/06/23 01:25:42;;;;;;;2.53;1.75;;;27.70;54.50;;;;;;5076614;28;20080;-61
2021/06/23 01:28:09;;;;;;;5.40;2.03;;;27.70;54.40;;;;;;5075305;28;20076;-64
2021/06/23 01:30:36;;;;;;;2.90;2.25;;;27.70;54.40;;;;;;5076947;28;20127;-62
2021/06/23 01:33:05;;;;;;;2.83;2.35;;;27.60;54.40;;;;;;5077719;28;20095;-62
2021/06/23 01:35:33;;;;;;;2.30;1.95;;;27.70;54.40;;;;;;5075815;28;20469;-62
2021/06/23 01:38:01;;;;;;;2.65;2.20;;;27.60;54.40;;;;;;5076094;28;20040;-61
2021/06/23 01:40:28;;;;;;;3.63;2.13;;;27.70;54.50;;;;;;5077195;28;20138;-61
2021/06/23 01:42:56;;;;;;;4.70;2.53;;;27.60;54.30;;;;;;5075686;28;20544;-62
2021/06/23 01:45:25;;;;;;;4.72;1.95;;;27.60;54.30;;;;;;5076447;28;20127;-62
2021/06/23 01:47:52;;;;;;;2.55;1.88;;;27.60;54.30;;;;;;5077011;28;20433;-62
2021/06/23 01:50:22;;;;;;;2.92;1.98;;;27.60;54.30;;;;;;5075601;28;20095;-62
2021/06/23 01:52:50;;;;;;;2.60;1.98;;;27.60;54.30;;;;;;5075245;28;20040;-62
2021/06/23 01:55:27;;;;;;;2.63;1.98;;;27.60;54.40;;;;;;5076548;28;20044;-62
2021/06/23 01:57:59;;;;;;;;;;;27.60;54.40;;;;;;5077258;28;20094;-62
2021/06/23 02:00:34;;;;;;;2.92;2.35;;;27.60;54.40;;;;;;5076620;28;19997;-62
2021/06/23 02:03:09;;;;;;;2.28;2.10;;;27.60;54.40;;;;;;5077335;28;20037;-62
2021/06/23 02:05:47;;;;;;;3.15;1.90;;;27.60;54.40;;;;;;5075758;28;20109;-62
2021/06/23 02:08:37;;;;;;;2.05;1.85;;;27.60;54.50;;;;;;5074715;28;20486;-62
2021/06/23 02:11:31;;;;;;;4.05;1.90;;;27.60;54.50;;;;;;5076833;28;20169;-62
2021/06/23 02:14:38;;;;;;;2.58;1.80;;;27.60;54.40;;;;;;5076420;28;20044;-62
2021/06/23 02:17:09;;;;;;;3.40;1.95;;;27.60;54.50;;;;;;5076199;28;20476;-62
2021/06/23 02:19:42;;;;;;;2.30;1.90;;;27.60;54.50;;;;;;5075413;28;20131;-61
2021/06/23 02:22:12;;;;;;;2.90;2.03;;;27.60;54.50;;;;;;5074721;28;20132;-62
2021/06/23 02:24:39;;;;;;;2.00;1.80;;;27.60;54.50;;;;;;5076595;28;20048;-62
2021/06/23 02:27:07;;;;;;;2.15;1.92;;;27.60;54.50;;;;;;5076875;28;20567;-62
2021/06/23 02:29:36;;;;;;;1.90;1.50;;;27.60;54.50;;;;;;5074967;28;20709;-62
2021/06/23 02:32:04;;;;;;;2.35;2.00;;;27.60;54.50;;;;;;5077520;28;20120;-62
2021/06/23 02:34:32;;;;;;;2.22;2.03;;;27.60;54.50;;;;;;5081376;28;20123;-62
2021/06/23 02:37:02;;;;;;;3.38;2.20;;;27.60;54.50;;;;;;5079743;28;20068;-62
2021/06/23 02:39:30;;;;;;;3.90;2.22;;;27.60;54.50;;;;;;5078470;28;20079;-62
2021/06/23 02:41:57;;;;;;;4.35;1.88;;;27.60;54.50;;;;;;5080627;28;20400;-61
2021/06/23 02:44:25;;;;;;;4.20;2.60;;;27.50;54.40;;;;;;5080382;28;20040;-62
2021/06/23 02:46:52;;;;;;;2.03;1.38;;;27.50;54.40;;;;;;5077120;28;20128;-62
2021/06/23 02:49:20;;;;;;;3.42;2.10;;;27.50;54.40;;;;;;5079353;28;20040;-62
2021/06/23 02:51:48;;;;;;;2.65;2.03;;;27.50;54.40;;;;;;5081038;28;20044;-61
2021/06/23 02:54:15;;;;;;;3.33;2.15;;;27.50;54.40;;;;;;5078824;28;20489;-62
2021/06/23 02:56:43;;;;;;;2.60;1.90;;;27.50;54.40;;;;;;5079087;28;20407;-62
2021/06/23 02:59:12;;;;;;;4.55;1.90;;;27.50;54.40;;;;;;5080370;28;20123;-62
2021/06/23 03:01:40;;;;;;;2.70;1.92;;;27.50;54.40;;;;;;5078962;28;20044;-62
2021/06/23 03:04:07;;;;;;;2.55;2.03;;;27.50;54.40;;;;;;5078590;28;20044;-62
2021/06/23 03:06:35;;;;;;;2.72;1.98;;;27.50;54.40;;;;;;5078857;28;20128;-61
2021/06/23 03:09:03;;;;;;;3.88;1.98;;;27.50;54.40;;;;;;5079408;28;20123;-62
2021/06/23 03:11:35;;;;;;;2.53;1.77;;;27.50;54.40;;;;;;5076776;28;20158;-62
2021/06/23 03:14:02;;;;;;;2.25;1.58;;;27.50;54.40;;;;;;5078679;28;20054;-62
2021/06/23 03:16:30;;;;;;;2.63;2.08;;;27.50;54.40;;;;;;5080477;28;20044;-62
2021/06/23 03:18:57;;;;;;;2.17;1.70;;;27.50;54.40;;;;;;5078250;28;20048;-62
2021/06/23 03:21:25;;;;;;;2.75;1.48;;;27.60;54.40;;;;;;5078252;28;20479;-61
2021/06/23 03:23:53;;;;;;;1.98;1.88;;;27.60;54.30;;;;;;5079751;28;20138;-62
2021/06/23 03:26:21;;;;;;;1.92;1.73;;;27.60;54.30;;;;;;5078904;28;20121;-62
2021/06/23 03:28:48;;;;;;;1.90;1.70;;;27.60;54.30;;;;;;5078329;28;20052;-62
2021/06/23 03:31:15;;;;;;;4.90;2.85;;;27.60;54.20;;;;;;5079616;28;20115;-62
2021/06/23 03:33:42;;;;;;;2.22;1.83;;;27.60;54.20;;;;;;5078167;28;20048;-62
2021/06/23 03:36:10;;;;;;;2.63;1.73;;;27.60;54.20;;;;;;5076871;28;20045;-62
2021/06/23 03:38:39;;;;;;;;;;;27.60;54.10;;;;;;5079236;28;20040;-62
2021/06/23 03:41:06;;;;;;;2.80;2.03;;;27.60;54.00;;;;;;5079136;28;19920;-62
2021/06/23 03:43:33;;;;;;;2.35;1.90;;;27.60;54.60;;;;;;5075512;28;20127;-62
2021/06/23 03:46:01;;;;;;;2.25;1.70;;;27.60;54.00;;;;;;5079001;28;20519;-62
2021/06/23 03:48:29;;;;;;;2.15;1.95;;;27.60;54.00;;;;;;5078268;28;20123;-62
2021/06/23 03:50:56;;;;;;;3.92;2.05;;;27.70;54.00;;;;;;5077757;28;20048;-62
2021/06/23 03:53:23;;;;;;;2.40;1.67;;;27.70;54.00;;;;;;5078225;28;20156;-62
2021/06/23 03:55:50;;;;;;;3.00;1.70;;;27.70;53.90;;;;;;5077224;28;20120;-62
2021/06/23 03:58:17;;;;;;;3.20;1.98;;;27.70;53.80;;;;;;5077882;28;20532;-62
2021/06/23 04:00:45;;;;;;;3.63;1.80;;;27.70;53.80;;;;;;5078281;28;21005;-62
2021/06/23 04:03:12;;;;;;;2.55;2.10;;;27.80;53.80;;;;;;5076312;28;20037;-62
2021/06/23 04:05:39;;;;;;;3.25;1.95;;;27.80;53.70;;;;;;5078378;28;20123;-62
2021/06/23 04:08:08;;;;;;;2.50;2.30;;;27.80;53.70;;;;;;5078635;28;20049;-62
2021/06/23 04:10:35;;;;;;;5.43;2.22;;;27.80;53.60;;;;;;5076704;28;20044;-64
2021/06/23 04:13:02;;;;;;;2.05;1.50;;;27.80;53.60;;;;;;5075818;28;20072;-62
2021/06/23 04:15:30;;;;;;;2.17;1.73;;;27.80;53.50;;;;;;5078736;28;20130;-62
2021/06/23 04:17:57;;;;;;;2.30;2.00;;;27.80;53.50;;;;;;5076938;28;20494;-62
2021/06/23 04:20:24;;;;;;;4.53;1.83;;;27.80;53.40;;;;;;5076585;28;20044;-62
2021/06/23 04:22:51;;;;;;;2.60;1.95;;;27.90;53.40;;;;;;5076537;28;20378;-62
2021/06/23 04:25:19;;;;;;;1.83;1.60;;;27.90;53.40;;;;;;5076894;28;20044;-62
2021/06/23 04:27:46;;;;;;;2.25;1.95;;;27.90;53.30;;;;;;5077522;28;20086;-61
2021/06/23 04:30:13;;;;;;;1.50;1.40;;;27.90;53.30;;;;;;5075943;28;20124;-62
2021/06/23 04:32:41;;;;;;;1.88;1.67;;;27.90;53.20;;;;;;5076037;28;20115;-63
2021/06/23 04:35:09;;;;;;;1.67;1.58;;;27.90;53.20;;;;;;5075833;28;20062;-62
2021/06/23 04:37:40;;;;;;;2.22;1.58;;;27.90;53.10;;;;;;5067705;28;20040;-62
2021/06/23 04:40:11;;;;;;;2.03;1.60;;;28.00;53.10;;;;;;5067529;28;20131;-62
2021/06/23 04:42:39;;;;;;;1.95;1.77;;;28.00;53.10;;;;;;5072096;28;20048;-62
2021/06/23 04:45:09;;;;;;;3.00;1.55;;;28.00;53.00;;;;;;5075592;28;20157;-61
2021/06/23 04:47:37;;;;;;;3.53;1.83;;;28.00;53.00;;;;;;5074376;28;20051;-61
2021/06/23 04:50:06;;;;;;;1.42;1.33;;;28.00;53.00;;;;;;5074254;28;20055;-62
2021/06/23 04:52:34;;;;;;;1.80;1.70;;;28.00;53.00;;;;;;5080601;28;20131;-62
2021/06/23 04:55:02;;;;;;;4.78;2.10;;;28.10;53.00;;;;;;5076852;28;20040;-62
2021/06/23 04:57:29;;;;;;;2.85;1.73;;;28.10;52.90;;;;;;5075650;28;20046;-61
2021/06/23 04:59:56;;;;;;;3.08;1.48;;;28.10;52.80;;;;;;5075185;28;20452;-61
2021/06/23 05:02:23;;;;;;;2.13;1.90;;;28.10;52.80;;;;;;5073825;28;20576;-62
2021/06/23 05:04:50;;;;;;;1.60;1.45;;;28.20;52.80;;;;;;5076366;28;20048;-62
2021/06/23 05:07:18;;;;;;;2.40;1.85;;;28.10;52.70;;;;;;5077594;28;20062;-62
2021/06/23 05:09:45;;;;;;;3.70;2.00;;;28.10;52.70;;;;;;5072660;28;20067;-61
2021/06/23 05:12:14;;;;;;;1.70;1.60;;;28.20;52.70;;;;;;5079483;28;20075;-61
2021/06/23 05:14:41;;;;;;;3.42;1.95;;;28.20;52.60;;;;;;5081299;28;20562;-61
2021/06/23 05:17:08;;;;;;;2.80;2.35;;;28.20;52.40;;;;;;5082028;28;20052;-61
2021/06/23 05:19:37;;;;;;;5.60;2.22;;;28.20;52.40;;;;;;5067324;28;20055;-62
2021/06/23 05:22:05;;;;;;;3.65;1.98;;;28.20;52.30;;;;;;5071023;28;20130;-63
2021/06/23 05:24:33;;;;;;;2.40;2.08;;;28.20;52.30;;;;;;5068907;28;20050;-62
2021/06/23 05:27:00;;;;;;;4.40;2.40;;;28.30;52.40;;;;;;5074941;28;20048;-62
2021/06/23 05:29:27;;;;;;;5.32;2.17;;;28.30;51.50;;;;;;5070592;28;20048;-63
2021/06/23 05:31:54;;;;;;;12.90;3.33;;;28.30;51.40;;;;;;5069256;28;20041;-62
2021/06/23 05:34:21;;;;;;;9.38;3.10;;;28.30;50.40;;;;;;5075179;28;20062;-62
2021/06/23 05:36:49;;;;;;;8.32;2.53;;;28.30;50.00;;;;;;5073429;28;20564;-62
2021/06/23 05:39:16;;;;;;;5.80;3.10;;;28.30;49.80;;;;;;5073091;28;20537;-62
2021/06/23 05:41:43;;;;;;;12.38;3.60;;;28.30;49.20;;;;;;5069672;28;20585;-64
2021/06/23 05:44:10;;;;;;;10.73;3.40;;;28.30;48.70;;;;;;5069503;28;20053;-65
2021/06/23 05:46:37;;;;;;;9.30;3.53;;;28.30;48.10;;;;;;5061080;28;20790;-64
2021/06/23 05:49:06;;;;;;;16.95;3.70;;;28.30;47.80;;;;;;5069477;28;20459;-65
2021/06/23 05:51:33;;;;;;;11.30;3.00;;;28.30;47.50;;;;;;5063572;28;20141;-64
2021/06/23 05:54:00;;;;;;;11.13;3.38;;;28.30;47.20;;;;;;5073186;28;20549;-61
2021/06/23 05:56:27;;;;;;;9.10;3.10;;;28.30;47.30;;;;;;5073053;28;20436;-64
2021/06/23 05:58:55;;;;;;;15.23;3.13;;;28.40;47.20;;;;;;5071892;28;20120;-71
2021/06/23 06:01:23;;;;;;;11.52;3.35;;;28.40;46.50;;;;;;5070582;28;20131;-64
2021/06/23 06:03:51;;;;;;;9.35;2.67;;;28.30;45.70;;;;;;5063264;28;20052;-65
2021/06/23 06:06:18;;;;;;;10.55;3.08;;;28.30;45.50;;;;;;5076888;28;20075;-64
2021/06/23 06:08:45;;;;;;;10.48;2.90;;;28.30;45.00;;;;;;5071158;28;20050;-63
2021/06/23 06:11:12;;;;;;;16.80;3.55;;;28.20;44.90;;;;;;5070428;28;20109;-62
2021/06/23 06:13:39;;;;;;;10.20;2.97;;;28.20;45.00;;;;;;5066178;28;20084;-61
2021/06/23 06:16:06;;;;;;;16.27;3.53;;;28.20;45.10;;;;;;5069631;28;20497;-62
2021/06/23 06:18:33;;;;;;;18.92;4.28;;;28.20;44.70;;;;;;5077784;28;20131;-62
2021/06/23 06:21:00;;;;;;;16.40;3.35;;;28.10;44.80;;;;;;5070266;28;20508;-62
2021/06/23 06:23:29;;;;;;;12.13;3.90;;;28.10;45.00;;;;;;5076109;28;20047;-60
2021/06/23 06:25:57;;;;;;;14.93;3.13;;;28.10;45.10;;;;;;5066717;28;20113;-69
2021/06/23 06:28:26;;;;;;;16.55;4.50;;;28.10;45.60;;;;;;5069450;28;20528;-61
2021/06/23 06:30:53;;;;;;;16.83;3.72;;;28.10;45.90;;;;;;5070432;28;20094;-62
2021/06/23 06:33:20;;;;;;;12.50;3.15;;;28.20;46.20;;;;;;5071079;28;20047;-63
2021/06/23 06:35:48;;;;;;;28.80;4.32;;;28.20;46.60;;;;;;5073258;28;20457;-60
2021/06/23 06:38:15;;;;;;;7.68;3.20;;;28.20;46.70;;;;;;5071694;28;20071;-60
2021/06/23 06:40:42;;;;;;;19.90;4.82;;;28.30;46.90;;;;;;5067929;28;20127;-61
2021/06/23 06:43:12;;;;;;;12.88;4.00;;;28.30;46.70;;;;;;5066674;28;20482;-61
2021/06/23 06:45:40;;;;;;;12.02;4.03;;;28.30;46.60;;;;;;5072476;28;20147;-63
2021/06/23 06:48:08;;;;;;;15.10;4.10;;;28.30;46.40;;;;;;5065030;28;20051;-63
2021/06/23 06:50:35;;;;;;;15.57;4.47;;;28.40;46.40;;;;;;5069668;28;20044;-60
2021/06/23 06:53:02;;;;;;;17.58;3.70;;;28.40;46.90;;;;;;5069284;28;20109;-68
2021/06/23 06:55:30;;;;;;;10.27;4.03;;;28.40;46.90;;;;;;5073333;28;20048;-66
2021/06/23 06:57:57;;;;;;;16.65;4.10;;;28.40;47.10;;;;;;5071300;28;20055;-66
2021/06/23 07:00:25;;;;;;;15.68;4.38;;;28.40;47.10;;;;;;5071307;28;20135;-63
2021/06/23 07:02:54;;;;;;;11.35;4.03;;;28.50;47.30;;;;;;5068266;28;20044;-64
2021/06/23 07:05:23;;;;;;;15.07;4.20;;;28.50;47.30;;;;;;5074559;28;20073;-63
2021/06/23 07:07:51;;;;;;;11.00;3.42;;;28.60;47.50;;;;;;5068386;28;20052;-63
2021/06/23 07:10:18;;;;;;;11.07;3.70;;;28.60;47.50;;;;;;5067239;28;20149;-62
2021/06/23 07:12:45;;;;;;;9.77;3.55;;;28.60;47.60;;;;;;5068370;28;20084;-63
2021/06/23 07:15:14;;;;;;;13.88;4.68;;;28.50;47.90;;;;;;5075506;28;20049;-63
2021/06/23 07:17:41;;;;;;;10.50;3.42;;;28.30;48.30;;;;;;5068717;28;20052;-63
2021/06/23 07:20:09;;;;;;;7.97;3.75;;;28.10;48.90;;;;;;5076456;28;20416;-63
2021/06/23 07:22:36;;;;;;;9.50;3.63;;;27.90;49.60;;;;;;5072895;28;20461;-63
2021/06/23 07:25:04;;;;;;;9.05;3.83;;;27.60;50.50;;;;;;5072961;28;20127;-64
2021/06/23 07:27:32;;;;;;;6.35;3.40;;;27.20;51.40;;;;;;5070973;28;20052;-63
2021/06/23 07:29:59;;;;;;;9.43;3.88;;;26.90;52.50;;;;;;5066393;28;20040;-63
2021/06/23 07:32:30;;;;;;;12.80;3.92;;;26.70;53.40;;;;;;5068794;28;20048;-63
2021/06/23 07:37:46;;;;;;;8.45;3.55;;;26.30;54.50;;;;;;5072153;28;20052;-65
2021/06/23 07:40:15;;;;;;;9.32;3.78;;;26.10;54.60;;;;;;5075797;28;20142;-63
2021/06/23 07:42:42;;;;;;;8.82;4.55;;;26.00;54.70;;;;;;5073600;28;20040;-63
2021/06/23 07:45:12;;;;;;;10.30;3.97;;;25.90;54.80;;;;;;5072970;28;20044;-66
2021/06/23 07:47:40;;;;;;;11.05;3.30;;;25.70;54.90;;;;;;5069806;28;20044;-63
2021/06/23 07:50:13;;;;;;;9.98;4.50;;;25.60;55.00;;;;;;5074488;28;20156;-65
2021/06/23 07:52:50;;;;;;;10.85;4.20;;;25.50;55.20;;;;;;5075882;28;20052;-60
2021/06/23 08:09:28;;;;;;;5.88;3.75;;;25.20;55.70;;;;;;5073856;28;20044;-59
2021/06/23 08:12:06;;;;;;;5.60;3.67;;;25.10;55.70;;;;;;5074278;28;20060;-62
2021/06/23 08:14:33;;;;;;;9.23;4.45;;;25.10;55.80;;;;;;5075680;28;20093;-63
2021/06/23 08:17:01;;;;;;;6.00;3.72;;;25.10;55.90;;;;;;5074655;28;20124;-63
2021/06/23 08:19:28;;;;;;;9.13;4.57;;;25.00;56.30;;;;;;5071569;28;20097;-62
2021/06/23 08:21:56;;;;;;;6.22;3.65;;;24.90;56.50;;;;;;5073269;28;20131;-59
2021/06/23 08:24:23;;;;;;;9.27;4.00;;;25.00;56.50;;;;;;5076897;28;20519;-59
2021/06/23 08:26:50;;;;;;;8.93;4.07;;;24.90;56.80;;;;;;5071139;28;20552;-63
2021/06/23 08:29:17;;;;;;;9.32;3.30;;;24.90;57.10;;;;;;5074222;28;20475;-63
2021/06/23 08:31:44;;;;;;;6.93;3.92;;;24.90;57.30;;;;;;5070491;28;20130;-63
2021/06/23 08:34:12;;;;;;;6.57;3.53;;;24.90;57.50;;;;;;5074285;28;20094;-65
2021/06/23 08:36:39;;;;;;;8.43;4.07;;;24.90;57.50;;;;;;5075032;28;20095;-60
2021/06/23 08:39:06;;;;;;;5.25;3.78;;;24.90;57.70;;;;;;5071608;28;20439;-61
2021/06/23 08:41:36;;;;;;;4.65;3.63;;;24.90;57.90;;;;;;5071758;28;20074;-60
2021/06/23 08:44:05;;;;;;;9.15;4.15;;;24.90;58.10;;;;;;5070819;28;20049;-61
2021/06/23 08:46:32;;;;;;;6.68;4.07;;;24.90;58.30;;;;;;5073374;28;20044;-60
2021/06/23 08:49:02;;;;;;;7.95;4.57;;;24.90;58.30;;;;;;5072929;28;20048;-65
2021/06/23 08:51:29;;;;;;;6.63;4.17;;;24.90;58.50;;;;;;5073902;28;20082;-67
2021/06/23 08:53:56;;;;;;;7.88;4.13;;;24.90;58.50;;;;;;5071296;28;20052;-64
2021/06/23 08:56:23;;;;;;;9.90;4.47;;;24.90;58.50;;;;;;5074591;28;20083;-62
2021/06/23 08:58:51;;;;;;;10.48;4.68;;;24.90;58.50;;;;;;5074315;28;20516;-62
2021/06/23 09:01:18;;;;;;;6.90;3.72;;;24.90;58.80;;;;;;5071396;28;20075;-64
2021/06/23 09:04:10;;;;;;;8.55;4.20;;;24.90;58.90;;;;;;5072509;28;20406;-61
2021/06/23 09:06:49;;;;;;;8.25;4.72;;;24.90;59.00;;;;;;5073283;28;20048;-64
2021/06/23 09:09:34;;;;;;;5.10;4.13;;;24.90;59.00;;;;;;5074133;28;20150;-63
2021/06/23 09:12:04;;;;;;;6.15;4.07;;;24.90;59.10;;;;;;5072362;28;20043;-61
2021/06/23 09:14:36;;;;;;;4.95;4.45;;;24.90;59.10;;;;;;5065721;28;20134;-63
2021/06/23 09:17:10;;;;;;;5.10;4.57;;;24.90;59.20;;;;;;5073781;28;20053;-64
2021/06/23 09:19:58;;;;;;;5.72;4.55;;;24.90;59.50;;;;;;5070163;28;20485;-60
2021/06/23 09:22:37;;;;;;;9.27;4.40;;;24.90;59.60;;;;;;5074762;28;20136;-61
2021/06/23 09:25:24;;;;;;;7.70;4.57;;;24.90;59.60;;;;;;5074082;28;20080;-65
2021/06/23 09:27:56;;;;;;;8.80;5.05;;;24.90;59.80;;;;;;5066195;28;20135;-65
2021/06/23 09:30:38;;;;;;;5.22;4.03;;;24.90;59.30;;;;;;5072955;28;20484;-65
2021/06/23 09:33:24;;;;;;;5.55;4.03;;;24.90;59.10;;;;;;5077377;28;20507;-64
2021/06/23 09:36:11;;;;;;;6.63;4.20;;;24.90;59.00;;;;;;5063098;28;20056;-64
2021/06/23 09:38:58;;;;;;;7.90;4.57;;;24.90;59.00;;;;;;5064582;28;20520;-66
2021/06/23 09:41:39;;;;;;;6.78;4.97;;;24.90;59.00;;;;;;5071259;28;20556;-67
2021/06/23 09:44:08;;;;;;;8.30;4.43;;;24.80;59.70;;;;;;5069424;28;20098;-67
2021/06/23 09:46:38;;;;;;;8.30;4.90;;;24.80;59.90;;;;;;5072758;28;20090;-68
2021/06/23 09:49:09;;;;;;;6.57;4.25;;;24.80;59.90;;;;;;5070000;28;20782;-66
2021/06/23 09:51:55;;;;;;;7.13;4.45;;;24.80;59.80;;;;;;5070835;28;20143;-68
2021/06/23 09:54:28;;;;;;;9.40;4.50;;;24.80;59.80;;;;;;5075391;28;20493;-68
2021/06/23 09:57:12;;;;;;;7.25;4.72;;;24.80;59.70;;;;;;5070531;28;20150;-68
2021/06/23 09:59:42;;;;;;;5.97;4.95;;;24.80;59.90;;;;;;5067073;28;20056;-66
2021/06/23 10:02:28;;;;;;;7.10;4.80;;;24.80;59.80;;;;;;5068876;28;20154;-64
2021/06/23 10:04:59;;;;;;;6.00;4.10;;;24.80;59.50;;;;;;5071923;28;20044;-67
2021/06/23 10:07:43;;;;;;;7.05;4.25;;;24.80;59.60;;;;;;5070228;28;22032;-67
2021/06/23 10:10:15;;;;;;;6.88;5.13;;;24.80;60.10;;;;;;5069576;28;20098;-67
2021/06/23 10:12:47;;;;;;;13.50;5.72;;;24.80;59.40;;;;;;5072581;28;20506;-68
2021/06/23 10:15:15;;;;;;;8.13;5.55;;;24.90;59.30;;;;;;5074771;28;20196;-66
2021/06/23 10:17:44;;;;;;;7.18;4.80;;;24.80;59.20;;;;;;5077062;28;20541;-66
2021/06/23 10:20:12;;;;;;;5.57;4.43;;;24.80;59.10;;;;;;5071450;28;20076;-66
2021/06/23 10:22:42;;;;;;;10.20;4.63;;;24.80;59.20;;;;;;5069106;28;20102;-66
2021/06/23 10:25:12;;;;;;;5.63;4.68;;;24.80;59.10;;;;;;5070763;28;20478;-66
2021/06/23 10:27:42;;;;;;;7.47;4.88;;;24.80;59.50;;;;;;5069555;28;20147;-68
2021/06/23 10:30:10;;;;;;;9.30;4.65;;;24.80;58.90;;;;;;5072854;28;20993;-67
2021/06/23 10:32:37;;;;;;;7.18;4.40;;;24.80;59.40;;;;;;5074597;28;20177;-69
2021/06/23 10:35:07;;;;;;;6.47;4.75;;;24.80;59.60;;;;;;5074132;28;20579;-70
2021/06/23 10:37:36;;;;;;;6.80;4.50;;;24.80;59.90;;;;;;5076217;28;20572;-69
2021/06/23 10:40:06;;;;;;;6.75;4.45;;;24.70;59.70;;;;;;5065121;28;20132;-68
2021/06/23 10:42:34;;;;;;;6.47;4.47;;;24.80;60.00;;;;;;5073742;28;20135;-65
2021/06/23 10:45:01;;;;;;;5.93;4.78;;;24.80;60.00;;;;;;5066658;28;20040;-67
2021/06/23 10:47:41;;;;;;;8.90;4.95;;;24.80;60.10;;;;;;5066271;28;20048;-66
2021/06/23 10:50:10;;;;;;;;;;;24.80;60.10;;;;;;5072830;28;20044;-66
2021/06/23 10:52:43;;;;;;;5.25;4.55;;;24.80;60.70;;;;;;5076428;28;20327;-66
2021/06/23 10:55:36;;;;;;;6.47;4.60;;;24.80;60.00;;;;;;5072939;28;20048;-67
2021/06/23 10:58:06;;;;;;;11.80;4.88;;;24.80;59.90;;;;;;5072796;28;20048;-66
2021/06/23 11:00:33;;;;;;;4.90;4.30;;;24.80;60.10;;;;;;5076834;28;20135;-69
2021/06/23 11:03:07;;;;;;;8.32;5.10;;;24.80;59.70;;;;;;5071497;28;20465;-68
2021/06/23 11:05:50;;;;;;;5.53;4.53;;;24.80;59.90;;;;;;5073402;28;20472;-68
2021/06/23 11:08:26;;;;;;;4.53;3.85;;;24.80;59.70;;;;;;5072443;28;20511;-67
2021/06/23 11:10:55;;;;;;;7.60;4.43;;;24.90;59.80;;;;;;5073064;28;20140;-67
2021/06/23 11:13:28;;;;;;;7.50;4.88;;;24.80;59.70;;;;;;5075061;28;20131;-67
2021/06/23 11:15:55;;;;;;;6.20;5.05;;;24.80;59.70;;;;;;5073371;28;20048;-67
2021/06/23 11:18:39;;;;;;;6.22;4.40;;;24.80;59.60;;;;;;5075554;28;20071;-68
2021/06/23 11:21:16;;;;;;;5.07;4.68;;;24.80;59.70;;;;;;5070608;28;20052;-67
2021/06/23 11:24:11;;;;;;;7.22;4.90;;;24.80;59.80;;;;;;5071232;28;20139;-68
2021/06/23 11:26:52;;;;;;;5.03;4.57;;;24.80;60.00;;;;;;5070470;28;20139;-67
2021/06/23 11:29:23;;;;;;;4.47;4.07;;;24.80;59.90;;;;;;5069610;28;20139;-68
2021/06/23 11:32:03;;;;;;;5.18;4.03;;;24.80;60.10;;;;;;5073017;28;20135;-69
2021/06/23 11:34:43;;;;;;;;;;;24.90;60.20;;;;;;5072399;28;20047;-69
2021/06/23 11:37:16;;;;;;;5.77;4.03;;;24.80;60.10;;;;;;5074817;28;19946;-68
2021/06/23 11:39:45;;;;;;;10.18;4.75;;;24.90;60.10;;;;;;5070290;28;20086;-67
2021/06/23 11:42:13;;;;;;;8.02;4.60;;;24.90;60.60;;;;;;5068292;28;20131;-61
2021/06/23 11:44:41;;;;;;;6.85;5.25;;;24.90;60.20;;;;;;5076249;28;21951;-66
2021/06/23 11:47:09;;;;;;;6.50;4.32;;;24.90;60.80;;;;;;5065466;28;20170;-63
2021/06/23 11:49:36;;;;;;;7.63;4.90;;;24.90;61.10;;;;;;5075131;28;20036;-66
2021/06/23 11:52:05;;;;;;;6.10;4.57;;;24.90;61.10;;;;;;5072907;28;20053;-60
2021/06/23 11:54:37;;;;;;;5.38;4.43;;;24.90;61.30;;;;;;5068087;28;20060;-67
2021/06/23 11:57:05;;;;;;;5.45;4.80;;;25.00;61.40;;;;;;5069524;28;20099;-68
2021/06/23 11:59:32;;;;;;;7.65;4.57;;;25.00;61.20;;;;;;5065438;28;20121;-66
2021/06/23 12:02:00;;;;;;;6.70;4.47;;;25.00;61.20;;;;;;5075721;28;20785;-61
2021/06/23 12:04:28;;;;;;;8.48;4.90;;;25.00;61.40;;;;;;5075361;28;20114;-62
2021/06/23 12:06:56;;;;;;;4.90;4.28;;;25.00;61.40;;;;;;5070051;28;20044;-61
2021/06/23 12:09:23;;;;;;;6.07;4.63;;;25.10;61.80;;;;;;5069369;28;20075;-60
2021/06/23 12:11:50;;;;;;;7.18;4.60;;;25.10;61.90;;;;;;5078839;28;20060;-62
2021/06/23 12:14:18;;;;;;;10.60;5.15;;;25.10;61.80;;;;;;5066424;28;20124;-64
2021/06/23 12:16:45;;;;;;;9.55;4.90;;;25.10;62.00;;;;;;5060307;28;20163;-64
2021/06/23 12:19:13;;;;;;;9.23;4.20;;;25.10;61.60;;;;;;5069510;28;20546;-63
2021/06/23 12:21:41;;;;;;;5.47;4.35;;;25.10;61.70;;;;;;5069860;28;20048;-65
2021/06/23 12:24:08;;;;;;;5.60;4.70;;;25.10;61.60;;;;;;5067060;28;20079;-63
2021/06/23 12:26:36;;;;;;;8.95;4.95;;;25.20;61.70;;;;;;5069675;28;20048;-66
2021/06/23 12:29:05;;;;;;;8.07;4.68;;;25.20;61.80;;;;;;5072852;28;20094;-62
2021/06/23 12:31:32;;;;;;;7.65;5.07;;;25.10;61.90;;;;;;5070725;28;20137;-63
2021/06/23 12:33:59;;;;;;;10.80;5.10;;;25.20;62.00;;;;;;5071829;28;20044;-63
2021/06/23 12:36:30;;;;;;;6.97;4.50;;;25.20;61.90;;;;;;5072749;28;20078;-65
2021/06/23 12:38:57;;;;;;;10.52;5.45;;;25.20;61.40;;;;;;5071401;28;20774;-66
2021/06/23 12:41:24;;;;;;;6.18;4.43;;;25.20;61.30;;;;;;5070127;28;20512;-69
2021/06/23 12:43:51;;;;;;;6.68;4.70;;;25.20;61.30;;;;;;5074809;28;20510;-69
2021/06/23 12:46:18;;;;;;;8.75;4.47;;;25.20;61.40;;;;;;5074138;28;20048;-65
2021/06/23 12:48:46;;;;;;;6.00;4.85;;;25.20;61.50;;;;;;5069313;28;20497;-64
2021/06/23 12:51:14;;;;;;;5.78;4.80;;;25.20;61.50;;;;;;5073518;28;20044;-66
2021/06/23 12:53:41;;;;;;;5.55;4.47;;;25.30;61.70;;;;;;5072093;28;20469;-65
2021/06/23 12:56:08;;;;;;;6.00;4.88;;;25.30;61.90;;;;;;5070951;28;20068;-62
2021/06/23 12:58:35;;;;;;;9.13;4.43;;;25.20;61.80;;;;;;5071186;28;20083;-61
2021/06/23 13:01:03;;;;;;;7.63;4.72;;;25.20;62.00;;;;;;5068482;28;20037;-60
2021/06/23 13:03:31;;;;;;;6.55;4.47;;;25.20;61.80;;;;;;5071956;28;20048;-64
2021/06/23 13:06:00;;;;;;;6.60;4.22;;;25.20;61.90;;;;;;5071053;28;20086;-64
2021/06/23 13:08:28;;;;;;;6.85;5.00;;;25.30;62.10;;;;;;5073478;28;20064;-63
2021/06/23 13:10:55;;;;;;;6.43;4.88;;;25.30;62.60;;;;;;5067911;28;20049;-60
2021/06/23 13:13:22;;;;;;;8.00;4.60;;;25.20;62.00;;;;;;5068877;28;20068;-60
2021/06/23 13:15:51;;;;;;;5.10;4.47;;;25.20;61.70;;;;;;5068222;28;20420;-63
2021/06/23 13:18:19;;;;;;;8.10;4.82;;;25.20;61.60;;;;;;5057993;28;22226;-64